createdAt,value
2018-12-01T00:00:26.664Z,-1.15
2018-12-01T00:01:36.771Z,-1.10
2018-12-01T00:02:26.638Z,-1.19
2018-12-01T00:03:27.759Z,-1.07
2018-12-01T00:04:26.618Z,-1.07
2018-12-01T00:05:26.619Z,-1.02
2018-12-01T00:06:26.604Z,-1.02
2018-12-01T00:07:26.593Z,-1.12
2018-12-01T00:08:26.576Z,-1.07
2018-12-01T00:09:26.619Z,-1.09
2018-12-01T00:10:26.559Z,-1.12
2018-12-01T00:11:26.544Z,-0.98
2018-12-01T00:12:26.533Z,-1.01
2018-12-01T00:13:26.528Z,-1.07
2018-12-01T00:14:26.521Z,-1.13
2018-12-01T00:15:26.983Z,-1.12
2018-12-01T00:16:26.492Z,-1.10
2018-12-01T00:17:26.521Z,-1.10
2018-12-01T00:18:26.475Z,-1.12
2018-12-01T00:19:26.468Z,-1.12
2018-12-01T00:20:26.457Z,-1.13
2018-12-01T00:21:26.481Z,-1.17
2018-12-01T00:22:26.434Z,-1.19
2018-12-01T00:23:26.422Z,-1.27
2018-12-01T00:24:26.410Z,-1.22
2018-12-01T00:25:26.404Z,-1.30
2018-12-01T00:26:26.389Z,-1.15
2018-12-01T00:27:26.413Z,-1.17
2018-12-01T00:28:26.366Z,-1.28
2018-12-01T00:29:26.359Z,-1.23
2018-12-01T00:30:26.348Z,-1.17
2018-12-01T00:31:26.339Z,-1.20
2018-12-01T00:32:37.500Z,-1.19
2018-12-01T00:33:26.315Z,-1.27
2018-12-01T00:34:26.309Z,-1.33
2018-12-01T00:35:26.298Z,-1.33
2018-12-01T00:36:26.298Z,-1.28
2018-12-01T00:37:26.273Z,-1.19
2018-12-01T00:38:26.281Z,-1.17
2018-12-01T00:39:26.261Z,-1.20
2018-12-01T00:40:26.241Z,-1.31
2018-12-01T00:41:26.231Z,-1.30
2018-12-01T00:42:26.223Z,-1.27
2018-12-01T00:43:26.210Z,-1.38
2018-12-01T00:44:26.294Z,-1.41
2018-12-01T00:45:26.195Z,-1.31
2018-12-01T00:46:26.182Z,-1.35
2018-12-01T00:47:26.172Z,-1.35
2018-12-01T00:48:26.158Z,-1.40
2018-12-01T00:49:26.148Z,-1.52
2018-12-01T00:50:26.177Z,-1.40
2018-12-01T00:51:26.134Z,-1.46
2018-12-01T00:52:26.124Z,-1.51
2018-12-01T00:53:26.118Z,-1.45
2018-12-01T00:54:26.095Z,-1.51
2018-12-01T00:55:26.090Z,-1.48
2018-12-01T00:56:26.120Z,-1.48
2018-12-01T00:57:26.065Z,-1.38
2018-12-01T00:58:26.059Z,-1.52
2018-12-01T00:59:26.048Z,-1.49
2018-12-01T01:00:26.033Z,-1.52
2018-12-01T01:01:26.028Z,-1.52
2018-12-01T01:02:26.121Z,-1.56
2018-12-01T01:03:36.621Z,-1.59
2018-12-01T01:04:25.996Z,-1.56
2018-12-01T01:05:25.980Z,-1.55
2018-12-01T01:06:25.975Z,-1.54
2018-12-01T01:07:25.966Z,-1.41
2018-12-01T01:08:25.990Z,-1.46
2018-12-01T01:09:25.952Z,-1.49
2018-12-01T01:10:25.933Z,-1.46
2018-12-01T01:11:25.923Z,-1.51
2018-12-01T01:12:25.915Z,-1.54
2018-12-01T01:13:25.905Z,-1.54
2018-12-01T01:14:25.990Z,-1.49
2018-12-01T01:15:25.884Z,-1.38
2018-12-01T01:16:25.869Z,-1.38
2018-12-01T01:17:25.857Z,-1.43
2018-12-01T01:18:25.855Z,-1.45
2018-12-01T01:19:25.850Z,-1.49
2018-12-01T01:20:26.036Z,-1.35
2018-12-01T01:21:25.821Z,-1.46
2018-12-01T01:22:25.812Z,-1.51
2018-12-01T01:23:25.798Z,-1.51
2018-12-01T01:24:25.782Z,-1.46
2018-12-01T01:25:25.772Z,-1.51
2018-12-01T01:26:25.789Z,-1.46
2018-12-01T01:27:25.758Z,-1.52
2018-12-01T01:28:25.741Z,-1.56
2018-12-01T01:29:25.732Z,-1.41
2018-12-01T01:30:25.725Z,-1.46
2018-12-01T01:31:25.709Z,-1.38
2018-12-01T01:32:25.745Z,-1.43
2018-12-01T01:33:25.694Z,-1.37
2018-12-01T01:34:35.944Z,-1.43
2018-12-01T01:35:25.670Z,-1.41
2018-12-01T01:36:25.663Z,-1.37
2018-12-01T01:37:25.649Z,-1.34
2018-12-01T01:38:26.421Z,-1.56
2018-12-01T01:39:25.628Z,-1.35
2018-12-01T01:40:25.615Z,-1.37
2018-12-01T01:41:25.610Z,-1.41
2018-12-01T01:42:25.598Z,-1.48
2018-12-01T01:43:25.587Z,-1.49
2018-12-01T01:44:25.619Z,-1.40
2018-12-01T01:45:25.574Z,-1.48
2018-12-01T01:46:25.555Z,-1.37
2018-12-01T01:47:25.553Z,-1.43
2018-12-01T01:48:25.539Z,-1.46
2018-12-01T01:49:25.527Z,-1.52
2018-12-01T01:50:25.558Z,-1.37
2018-12-01T01:51:25.506Z,-1.48
2018-12-01T01:52:25.491Z,-1.46
2018-12-01T01:53:25.490Z,-1.43
2018-12-01T01:54:25.478Z,-1.56
2018-12-01T01:55:25.461Z,-1.58
2018-12-01T01:56:25.527Z,-1.55
2018-12-01T01:57:25.441Z,-1.52
2018-12-01T01:58:25.430Z,-1.59
2018-12-01T01:59:25.420Z,-1.61
2018-12-01T02:00:25.413Z,-1.56
2018-12-01T02:01:25.399Z,-1.58
2018-12-01T02:02:25.417Z,-1.48
2018-12-01T02:03:25.384Z,-1.43
2018-12-01T02:04:25.365Z,-1.48
2018-12-01T02:05:35.535Z,-1.51
2018-12-01T02:06:25.351Z,-1.35
2018-12-01T02:07:25.338Z,-1.35
2018-12-01T02:08:26.059Z,-1.38
2018-12-01T02:09:25.318Z,-1.49
2018-12-01T02:10:25.311Z,-1.30
2018-12-01T02:11:25.297Z,-1.35
2018-12-01T02:12:25.285Z,-1.48
2018-12-01T02:13:25.275Z,-1.52
2018-12-01T02:14:25.560Z,-1.61
2018-12-01T02:15:25.257Z,-1.59
2018-12-01T02:16:25.247Z,-1.67
2018-12-01T02:17:25.236Z,-1.56
2018-12-01T02:18:25.223Z,-1.59
2018-12-01T02:19:25.211Z,-1.69
2018-12-01T02:20:25.534Z,-1.64
2018-12-01T02:21:25.209Z,-1.77
2018-12-01T02:22:25.186Z,-1.64
2018-12-01T02:23:25.170Z,-1.64
2018-12-01T02:24:25.165Z,-1.62
2018-12-01T02:25:25.150Z,-1.64
2018-12-01T02:26:25.175Z,-1.69
2018-12-01T02:27:25.126Z,-1.70
2018-12-01T02:28:25.122Z,-1.74
2018-12-01T02:29:25.115Z,-1.74
2018-12-01T02:30:25.100Z,-1.73
2018-12-01T02:31:25.130Z,-1.66
2018-12-01T02:32:25.901Z,-1.72
2018-12-01T02:33:25.072Z,-1.92
2018-12-01T02:34:25.056Z,-1.74
2018-12-01T02:35:25.051Z,-1.74
2018-12-01T02:36:35.048Z,-1.80
2018-12-01T02:37:25.030Z,-1.70
2018-12-01T02:38:25.139Z,-1.76
2018-12-01T02:39:25.021Z,-1.73
2018-12-01T02:40:24.997Z,-1.76
2018-12-01T02:41:24.986Z,-1.87
2018-12-01T02:42:24.980Z,-1.82
2018-12-01T02:43:25.001Z,-1.80
2018-12-01T02:44:24.998Z,-1.87
2018-12-01T02:45:24.944Z,-1.87
2018-12-01T02:46:24.929Z,-2.05
2018-12-01T02:47:24.922Z,-1.91
2018-12-01T02:48:24.920Z,-2.06
2018-12-01T02:49:24.897Z,-1.97
2018-12-01T02:50:25.083Z,-2.00
2018-12-01T02:51:24.879Z,-2.06
2018-12-01T02:52:24.868Z,-2.09
2018-12-01T02:53:24.864Z,-2.08
2018-12-01T02:54:24.847Z,-2.02
2018-12-01T02:55:24.840Z,-1.95
2018-12-01T02:56:25.058Z,-1.94
2018-12-01T02:57:24.822Z,-2.03
2018-12-01T02:58:24.812Z,-2.02
2018-12-01T02:59:24.800Z,-2.05
2018-12-01T03:00:24.819Z,-2.00
2018-12-01T03:01:24.776Z,-1.91
2018-12-01T03:02:24.807Z,-1.91
2018-12-01T03:03:24.754Z,-1.97
2018-12-01T03:04:24.738Z,-1.84
2018-12-01T03:05:24.735Z,-1.94
2018-12-01T03:06:24.718Z,-1.94
2018-12-01T03:07:35.813Z,-1.80
2018-12-01T03:08:24.695Z,-1.84
2018-12-01T03:09:24.685Z,-1.84
2018-12-01T03:10:24.682Z,-1.69
2018-12-01T03:11:24.682Z,-1.73
2018-12-01T03:12:24.657Z,-1.76
2018-12-01T03:13:24.688Z,-1.70
2018-12-01T03:14:24.632Z,-1.76
2018-12-01T03:15:24.623Z,-1.74
2018-12-01T03:16:24.611Z,-1.79
2018-12-01T03:17:24.610Z,-1.79
2018-12-01T03:18:24.597Z,-1.87
2018-12-01T03:19:24.613Z,-1.77
2018-12-01T03:20:24.571Z,-1.87
2018-12-01T03:21:24.559Z,-1.79
2018-12-01T03:22:24.553Z,-1.76
2018-12-01T03:23:24.543Z,-1.90
2018-12-01T03:24:24.532Z,-1.76
2018-12-01T03:25:24.542Z,-1.84
2018-12-01T03:26:24.510Z,-1.79
2018-12-01T03:27:24.501Z,-1.66
2018-12-01T03:28:24.540Z,-1.74
2018-12-01T03:29:24.478Z,-1.69
2018-12-01T03:30:24.466Z,-1.64
2018-12-01T03:31:26.829Z,-1.70
2018-12-01T03:32:24.448Z,-1.77
2018-12-01T03:33:24.441Z,-1.87
2018-12-01T03:34:24.431Z,-1.84
2018-12-01T03:35:24.423Z,-1.87
2018-12-01T03:36:24.402Z,-1.82
2018-12-01T03:37:24.430Z,-1.85
2018-12-01T03:38:35.024Z,-1.87
2018-12-01T03:39:24.375Z,-1.87
2018-12-01T03:40:24.368Z,-1.70
2018-12-01T03:41:24.351Z,-1.70
2018-12-01T03:42:24.342Z,-1.72
2018-12-01T03:43:24.380Z,-1.72
2018-12-01T03:44:24.318Z,-1.76
2018-12-01T03:45:24.315Z,-1.72
2018-12-01T03:46:24.302Z,-1.66
2018-12-01T03:47:24.288Z,-1.79
2018-12-01T03:48:24.285Z,-1.84
2018-12-01T03:49:24.302Z,-1.74
2018-12-01T03:50:24.255Z,-1.73
2018-12-01T03:51:24.254Z,-1.59
2018-12-01T03:52:24.237Z,-1.74
2018-12-01T03:53:24.229Z,-1.64
2018-12-01T03:54:24.219Z,-1.80
2018-12-01T03:55:24.220Z,-1.74
2018-12-01T03:56:24.196Z,-1.76
2018-12-01T03:57:24.189Z,-1.70
2018-12-01T03:58:24.182Z,-1.64
2018-12-01T03:59:24.164Z,-1.56
2018-12-01T04:00:24.158Z,-1.76
2018-12-01T04:01:24.188Z,-1.76
2018-12-01T04:02:24.133Z,-1.77
2018-12-01T04:03:24.119Z,-1.61
2018-12-01T04:04:24.109Z,-1.70
2018-12-01T04:05:24.099Z,-1.70
2018-12-01T04:06:24.087Z,-1.66
2018-12-01T04:07:24.170Z,-1.56
2018-12-01T04:08:24.069Z,-1.66
2018-12-01T04:09:34.203Z,-1.61
2018-12-01T04:10:24.047Z,-1.61
2018-12-01T04:11:24.035Z,-1.69
2018-12-01T04:12:24.027Z,-1.72
2018-12-01T04:13:24.062Z,-1.70
2018-12-01T04:14:24.010Z,-1.74
2018-12-01T04:15:23.992Z,-1.73
2018-12-01T04:16:23.987Z,-1.74
2018-12-01T04:17:23.971Z,-1.67
2018-12-01T04:18:23.974Z,-1.66
2018-12-01T04:19:24.107Z,-1.62
2018-12-01T04:20:23.942Z,-1.72
2018-12-01T04:21:23.936Z,-1.69
2018-12-01T04:22:23.922Z,-1.72
2018-12-01T04:23:23.916Z,-1.67
2018-12-01T04:24:23.910Z,-1.74
2018-12-01T04:25:23.926Z,-1.67
2018-12-01T04:26:23.881Z,-1.73
2018-12-01T04:27:23.870Z,-1.62
2018-12-01T04:28:23.863Z,-1.67
2018-12-01T04:29:23.851Z,-1.70
2018-12-01T04:30:23.840Z,-1.70
2018-12-01T04:31:24.606Z,-1.62
2018-12-01T04:32:23.824Z,-1.69
2018-12-01T04:33:23.811Z,-1.58
2018-12-01T04:34:23.794Z,-1.64
2018-12-01T04:35:23.782Z,-1.64
2018-12-01T04:36:23.773Z,-1.70
2018-12-01T04:37:24.605Z,-1.67
2018-12-01T04:38:23.754Z,-1.66
2018-12-01T04:39:23.743Z,-1.61
2018-12-01T04:40:34.000Z,-1.54
2018-12-01T04:41:23.722Z,-1.66
2018-12-01T04:42:23.716Z,-1.67
2018-12-01T04:43:24.127Z,-1.70
2018-12-01T04:44:23.695Z,-1.72
2018-12-01T04:45:23.684Z,-1.67
2018-12-01T04:46:23.673Z,-1.61
2018-12-01T04:47:23.667Z,-1.62
2018-12-01T04:48:23.653Z,-1.70
2018-12-01T04:49:23.688Z,-1.73
2018-12-01T04:50:23.637Z,-1.66
2018-12-01T04:51:23.628Z,-1.67
2018-12-01T04:52:23.605Z,-1.74
2018-12-01T04:53:23.601Z,-1.74
2018-12-01T04:54:23.585Z,-1.85
2018-12-01T04:55:23.618Z,-1.79
2018-12-01T04:56:23.571Z,-1.77
2018-12-01T04:57:23.555Z,-1.82
2018-12-01T04:58:23.542Z,-1.87
2018-12-01T04:59:23.538Z,-1.90
2018-12-01T05:00:23.525Z,-1.84
2018-12-01T05:01:23.529Z,-1.88
2018-12-01T05:02:23.509Z,-1.82
2018-12-01T05:03:23.491Z,-1.72
2018-12-01T05:04:23.484Z,-1.73
2018-12-01T05:05:23.468Z,-1.90
2018-12-01T05:06:23.463Z,-1.90
2018-12-01T05:07:23.487Z,-1.88
2018-12-01T05:08:23.439Z,-1.88
2018-12-01T05:09:23.433Z,-1.92
2018-12-01T05:10:23.420Z,-1.92
2018-12-01T05:11:33.559Z,-2.02
2018-12-01T05:12:23.401Z,-2.03
2018-12-01T05:13:23.431Z,-2.05
2018-12-01T05:14:23.378Z,-2.03
2018-12-01T05:15:23.366Z,-2.16
2018-12-01T05:16:23.357Z,-2.12
2018-12-01T05:17:23.347Z,-2.06
2018-12-01T05:18:23.330Z,-2.02
2018-12-01T05:19:23.361Z,-2.05
2018-12-01T05:20:23.317Z,-2.13
2018-12-01T05:21:23.301Z,-2.03
2018-12-01T05:22:23.293Z,-2.00
2018-12-01T05:23:23.280Z,-2.12
2018-12-01T05:24:23.268Z,-2.10
2018-12-01T05:25:23.302Z,-2.10
2018-12-01T05:26:23.251Z,-2.09
2018-12-01T05:27:23.245Z,-2.02
2018-12-01T05:28:23.233Z,-2.00
2018-12-01T05:29:23.218Z,-2.09
2018-12-01T05:30:23.206Z,-2.05
2018-12-01T05:31:23.233Z,-2.09
2018-12-01T05:32:23.193Z,-2.03
2018-12-01T05:33:23.175Z,-2.09
2018-12-01T05:34:23.170Z,-2.05
2018-12-01T05:35:23.153Z,-2.03
2018-12-01T05:36:23.141Z,-2.09
2018-12-01T05:37:23.172Z,-2.23
2018-12-01T05:38:23.125Z,-2.16
2018-12-01T05:39:23.116Z,-2.08
2018-12-01T05:40:23.106Z,-2.16
2018-12-01T05:41:23.088Z,-2.12
2018-12-01T05:42:35.164Z,-2.18
2018-12-01T05:43:23.070Z,-2.12
2018-12-01T05:44:23.062Z,-2.29
2018-12-01T05:45:23.052Z,-2.20
2018-12-01T05:46:23.046Z,-2.18
2018-12-01T05:47:23.027Z,-2.20
2018-12-01T05:48:23.807Z,-2.20
2018-12-01T05:49:23.014Z,-2.13
2018-12-01T05:50:23.000Z,-2.08
2018-12-01T05:51:22.991Z,-2.10
2018-12-01T05:52:22.976Z,-2.12
2018-12-01T05:53:22.965Z,-2.10
2018-12-01T05:54:23.002Z,-2.10
2018-12-01T05:55:22.942Z,-2.09
2018-12-01T05:56:22.931Z,-2.08
2018-12-01T05:57:22.928Z,-2.08
2018-12-01T05:58:22.914Z,-2.15
2018-12-01T05:59:22.901Z,-1.98
2018-12-01T06:00:22.916Z,-2.00
2018-12-01T06:01:22.883Z,-2.18
2018-12-01T06:02:22.876Z,-2.05
2018-12-01T06:03:22.863Z,-2.13
2018-12-01T06:04:22.846Z,-2.10
2018-12-01T06:05:22.837Z,-2.09
2018-12-01T06:06:22.871Z,-2.13
2018-12-01T06:07:22.823Z,-2.23
2018-12-01T06:08:22.807Z,-2.24
2018-12-01T06:09:22.793Z,-2.15
2018-12-01T06:10:22.789Z,-2.10
2018-12-01T06:11:22.773Z,-2.16
2018-12-01T06:12:23.161Z,-2.13
2018-12-01T06:13:33.122Z,-2.15
2018-12-01T06:14:22.741Z,-2.16
2018-12-01T06:15:22.731Z,-2.21
2018-12-01T06:16:22.723Z,-2.30
2018-12-01T06:17:22.719Z,-2.20
2018-12-01T06:18:22.741Z,-2.30
2018-12-01T06:19:22.688Z,-2.20
2018-12-01T06:20:22.688Z,-2.16
2018-12-01T06:21:22.668Z,-2.23
2018-12-01T06:22:22.660Z,-2.35
2018-12-01T06:23:22.646Z,-2.35
2018-12-01T06:24:23.174Z,-2.29
2018-12-01T06:25:22.636Z,-2.29
2018-12-01T06:26:22.616Z,-2.35
2018-12-01T06:27:22.614Z,-2.26
2018-12-01T06:28:22.602Z,-2.29
2018-12-01T06:29:22.589Z,-2.34
2018-12-01T06:30:22.676Z,-2.34
2018-12-01T06:31:22.561Z,-2.35
2018-12-01T06:32:22.552Z,-2.49
2018-12-01T06:33:22.548Z,-2.43
2018-12-01T06:34:22.538Z,-2.46
2018-12-01T06:35:22.521Z,-2.39
2018-12-01T06:36:22.552Z,-2.45
2018-12-01T06:37:22.502Z,-2.61
2018-12-01T06:38:22.492Z,-2.60
2018-12-01T06:39:22.483Z,-2.58
2018-12-01T06:40:22.482Z,-2.55
2018-12-01T06:41:22.460Z,-2.39
2018-12-01T06:42:22.648Z,-2.37
2018-12-01T06:43:22.439Z,-2.49
2018-12-01T06:44:32.904Z,-2.60
2018-12-01T06:45:22.420Z,-2.63
2018-12-01T06:46:22.414Z,-2.61
2018-12-01T06:47:22.398Z,-2.63
2018-12-01T06:48:22.435Z,-2.55
2018-12-01T06:49:22.379Z,-2.66
2018-12-01T06:50:22.364Z,-2.58
2018-12-01T06:51:22.363Z,-2.58
2018-12-01T06:52:22.346Z,-2.58
2018-12-01T06:53:22.343Z,-2.60
2018-12-01T06:54:22.686Z,-2.53
2018-12-01T06:55:22.314Z,-2.64
2018-12-01T06:56:22.307Z,-2.70
2018-12-01T06:57:22.305Z,-2.71
2018-12-01T06:58:22.280Z,-2.61
2018-12-01T06:59:22.278Z,-2.56
2018-12-01T07:00:22.679Z,-2.61
2018-12-01T07:01:22.255Z,-2.63
2018-12-01T07:02:22.247Z,-2.53
2018-12-01T07:03:22.228Z,-2.56
2018-12-01T07:04:22.218Z,-2.64
2018-12-01T07:05:22.206Z,-2.64
2018-12-01T07:06:22.234Z,-2.67
2018-12-01T07:07:22.195Z,-2.58
2018-12-01T07:08:22.177Z,-2.55
2018-12-01T07:09:22.168Z,-2.66
2018-12-01T07:10:22.161Z,-2.61
2018-12-01T07:11:22.160Z,-2.58
2018-12-01T07:12:22.176Z,-2.64
2018-12-01T07:13:22.125Z,-2.58
2018-12-01T07:14:22.119Z,-2.55
2018-12-01T07:15:31.973Z,-2.53
2018-12-01T07:16:22.097Z,-2.55
2018-12-01T07:17:22.080Z,-2.63
2018-12-01T07:18:22.098Z,-2.60
2018-12-01T07:19:22.063Z,-2.58
2018-12-01T07:20:22.051Z,-2.56
2018-12-01T07:21:22.044Z,-2.56
2018-12-01T07:22:22.033Z,-2.66
2018-12-01T07:23:22.018Z,-2.70
2018-12-01T07:24:22.184Z,-2.74
2018-12-01T07:25:22.001Z,-2.73
2018-12-01T07:26:21.992Z,-2.64
2018-12-01T07:27:21.975Z,-2.78
2018-12-01T07:28:21.968Z,-2.70
2018-12-01T07:29:21.957Z,-2.68
2018-12-01T07:30:21.960Z,-2.64
2018-12-01T07:31:21.936Z,-2.78
2018-12-01T07:32:21.926Z,-2.74
2018-12-01T07:33:21.926Z,-2.78
2018-12-01T07:34:21.901Z,-2.55
2018-12-01T07:35:21.896Z,-2.74
2018-12-01T07:36:22.647Z,-2.77
2018-12-01T07:37:21.874Z,-2.60
2018-12-01T07:38:21.862Z,-2.63
2018-12-01T07:39:21.853Z,-2.61
2018-12-01T07:40:21.840Z,-2.58
2018-12-01T07:41:21.842Z,-2.71
2018-12-01T07:42:22.199Z,-2.61
2018-12-01T07:43:21.809Z,-2.61
2018-12-01T07:44:21.806Z,-2.63
2018-12-01T07:45:21.786Z,-2.63
2018-12-01T07:46:31.770Z,-2.58
2018-12-01T07:47:21.767Z,-2.58
2018-12-01T07:48:21.794Z,-2.58
2018-12-01T07:49:21.749Z,-2.55
2018-12-01T07:50:21.740Z,-2.56
2018-12-01T07:51:21.727Z,-2.48
2018-12-01T07:52:21.710Z,-2.43
2018-12-01T07:53:21.707Z,-2.48
2018-12-01T07:54:22.208Z,-2.39
2018-12-01T07:55:21.687Z,-2.46
2018-12-01T07:56:21.679Z,-2.43
2018-12-01T07:57:21.657Z,-2.43
2018-12-01T07:58:21.657Z,-2.39
2018-12-01T07:59:21.646Z,-2.46
2018-12-01T08:00:21.715Z,-2.45
2018-12-01T08:01:21.624Z,-2.42
2018-12-01T08:02:21.609Z,-2.43
2018-12-01T08:03:21.600Z,-2.52
2018-12-01T08:04:21.593Z,-2.48
2018-12-01T08:05:21.578Z,-2.46
2018-12-01T08:06:21.592Z,-2.49
2018-12-01T08:07:21.558Z,-2.43
2018-12-01T08:08:21.546Z,-2.46
2018-12-01T08:09:21.543Z,-2.50
2018-12-01T08:10:21.523Z,-2.45
2018-12-01T08:11:21.520Z,-2.45
2018-12-01T08:12:21.541Z,-2.42
2018-12-01T08:13:21.495Z,-2.53
2018-12-01T08:14:21.487Z,-2.52
2018-12-01T08:15:21.477Z,-2.52
2018-12-01T08:16:21.467Z,-2.55
2018-12-01T08:17:31.737Z,-2.53
2018-12-01T08:18:21.443Z,-2.46
2018-12-01T08:19:21.442Z,-2.42
2018-12-01T08:20:21.422Z,-2.49
2018-12-01T08:21:21.411Z,-2.46
2018-12-01T08:22:21.403Z,-2.46
2018-12-01T08:23:21.419Z,-2.43
2018-12-01T08:24:21.379Z,-2.42
2018-12-01T08:25:21.371Z,-2.49
2018-12-01T08:26:21.357Z,-2.45
2018-12-01T08:27:21.389Z,-2.49
2018-12-01T08:28:21.340Z,-2.35
2018-12-01T08:29:22.123Z,-2.48
2018-12-01T08:30:21.315Z,-2.49
2018-12-01T08:31:21.306Z,-2.48
2018-12-01T08:32:21.297Z,-2.45
2018-12-01T08:33:21.287Z,-2.39
2018-12-01T08:34:21.278Z,-2.42
2018-12-01T08:35:21.302Z,-2.37
2018-12-01T08:36:21.254Z,-2.40
2018-12-01T08:37:21.244Z,-2.42
2018-12-01T08:38:21.237Z,-2.39
2018-12-01T08:39:21.231Z,-2.45
2018-12-01T08:40:21.218Z,-2.39
2018-12-01T08:41:22.232Z,-2.46
2018-12-01T08:42:21.193Z,-2.32
2018-12-01T08:43:21.186Z,-2.30
2018-12-01T08:44:21.172Z,-2.29
2018-12-01T08:45:21.171Z,-2.46
2018-12-01T08:46:21.153Z,-2.40
2018-12-01T08:47:21.173Z,-2.29
2018-12-01T08:48:33.119Z,-2.34
2018-12-01T08:49:21.117Z,-2.30
2018-12-01T08:50:21.107Z,-2.26
2018-12-01T08:51:21.101Z,-2.30
2018-12-01T08:52:21.103Z,-2.26
2018-12-01T08:53:21.113Z,-2.32
2018-12-01T08:54:21.068Z,-2.16
2018-12-01T08:55:21.067Z,-2.20
2018-12-01T08:56:21.047Z,-2.27
2018-12-01T08:57:21.035Z,-2.21
2018-12-01T08:58:21.028Z,-2.23
2018-12-01T08:59:21.117Z,-2.23
2018-12-01T09:00:21.001Z,-2.23
2018-12-01T09:01:20.993Z,-2.30
2018-12-01T09:02:20.984Z,-2.21
2018-12-01T09:03:20.970Z,-2.16
2018-12-01T09:04:20.974Z,-2.09
2018-12-01T09:05:21.233Z,-2.08
2018-12-01T09:06:20.942Z,-2.09
2018-12-01T09:07:20.933Z,-2.06
2018-12-01T09:08:20.923Z,-2.06
2018-12-01T09:09:20.918Z,-2.05
2018-12-01T09:10:20.909Z,-2.05
2018-12-01T09:11:20.929Z,-2.13
2018-12-01T09:12:20.882Z,-2.18
2018-12-01T09:13:20.870Z,-2.05
2018-12-01T09:14:20.854Z,-2.00
2018-12-01T09:15:20.845Z,-2.09
2018-12-01T09:16:20.847Z,-2.03
2018-12-01T09:17:21.247Z,-2.03
2018-12-01T09:18:20.820Z,-2.00
2018-12-01T09:19:31.720Z,-1.94
2018-12-01T09:20:20.794Z,-2.05
2018-12-01T09:21:20.788Z,-1.94
2018-12-01T09:22:20.774Z,-1.98
2018-12-01T09:23:21.269Z,-1.91
2018-12-01T09:24:20.756Z,-1.88
2018-12-01T09:25:20.739Z,-1.92
2018-12-01T09:26:20.734Z,-1.91
2018-12-01T09:27:22.657Z,-1.94
2018-12-01T09:28:20.718Z,-1.88
2018-12-01T09:29:20.766Z,-1.92
2018-12-01T09:30:20.688Z,-1.90
2018-12-01T09:31:20.685Z,-1.79
2018-12-01T09:32:20.694Z,-1.82
2018-12-01T09:33:20.664Z,-1.88
2018-12-01T09:34:20.653Z,-1.82
2018-12-01T09:35:20.669Z,-1.82
2018-12-01T09:36:20.629Z,-1.90
2018-12-01T09:37:20.737Z,-1.82
2018-12-01T09:38:20.603Z,-1.90
2018-12-01T09:39:20.592Z,-1.79
2018-12-01T09:40:20.585Z,-1.48
2018-12-01T09:41:20.763Z,-1.13
2018-12-01T09:42:24.806Z,-0.98
2018-12-01T09:43:20.553Z,-1.17
2018-12-01T09:44:20.551Z,-1.12
2018-12-01T09:45:20.534Z,-0.98
2018-12-01T09:46:20.524Z,-0.85
2018-12-01T09:47:20.550Z,-0.94
2018-12-01T09:48:20.501Z,-0.69
2018-12-01T09:49:20.488Z,-0.16
2018-12-01T09:50:31.466Z,0.31
2018-12-01T09:51:20.473Z,0.69
2018-12-01T09:52:20.456Z,0.70
2018-12-01T09:53:20.775Z,0.96
2018-12-01T09:54:20.437Z,0.73
2018-12-01T09:55:20.429Z,0.87
2018-12-01T09:56:20.414Z,0.72
2018-12-01T09:57:20.402Z,0.94
2018-12-01T09:58:20.392Z,0.87
2018-12-01T09:59:20.768Z,0.83
2018-12-01T10:00:20.369Z,1.41
2018-12-01T10:01:20.365Z,1.50
2018-12-01T10:02:20.350Z,1.47
2018-12-01T10:03:20.346Z,1.15
2018-12-01T10:04:20.329Z,1.44
2018-12-01T10:05:20.352Z,1.29
2018-12-01T10:06:20.325Z,1.40
2018-12-01T10:07:20.297Z,1.27
2018-12-01T10:08:20.296Z,1.30
2018-12-01T10:09:20.274Z,1.37
2018-12-01T10:10:20.262Z,1.48
2018-12-01T10:11:21.057Z,1.65
2018-12-01T10:12:20.240Z,1.58
2018-12-01T10:13:20.229Z,1.12
2018-12-01T10:14:20.222Z,1.32
2018-12-01T10:15:20.213Z,1.32
2018-12-01T10:16:20.204Z,1.18
2018-12-01T10:17:20.223Z,1.18
2018-12-01T10:18:20.173Z,1.23
2018-12-01T10:19:20.170Z,1.15
2018-12-01T10:20:20.158Z,1.91
2018-12-01T10:21:30.529Z,1.70
2018-12-01T10:22:20.131Z,1.70
2018-12-01T10:23:20.137Z,1.58
2018-12-01T10:24:20.116Z,1.47
2018-12-01T10:25:20.097Z,1.44
2018-12-01T10:26:20.087Z,1.54
2018-12-01T10:27:20.089Z,0.97
2018-12-01T10:28:20.079Z,0.83
2018-12-01T10:29:21.036Z,0.69
2018-12-01T10:30:20.042Z,0.49
2018-12-01T10:31:20.048Z,0.42
2018-12-01T10:32:20.033Z,0.53
2018-12-01T10:33:20.017Z,0.47
2018-12-01T10:34:20.007Z,0.49
2018-12-01T10:35:20.788Z,0.84
2018-12-01T10:36:19.981Z,0.73
2018-12-01T10:37:19.975Z,0.42
2018-12-01T10:38:19.970Z,0.72
2018-12-01T10:39:19.951Z,1.08
2018-12-01T10:40:19.941Z,0.84
2018-12-01T10:41:20.313Z,0.93
2018-12-01T10:42:19.917Z,1.00
2018-12-01T10:43:19.910Z,0.39
2018-12-01T10:44:19.895Z,0.28
2018-12-01T10:45:19.894Z,0.50
2018-12-01T10:46:19.872Z,0.39
2018-12-01T10:47:19.901Z,0.35
2018-12-01T10:48:19.847Z,0.42
2018-12-01T10:49:19.839Z,-0.15
2018-12-01T10:50:19.841Z,-0.26
2018-12-01T10:51:19.821Z,-0.37
2018-12-01T10:52:30.306Z,-0.82
2018-12-01T10:53:19.799Z,-0.86
2018-12-01T10:54:19.786Z,-0.61
2018-12-01T10:55:19.779Z,-0.40
2018-12-01T10:56:19.761Z,-0.70
2018-12-01T10:57:19.754Z,-1.13
2018-12-01T10:58:19.767Z,-0.99
2018-12-01T10:59:19.741Z,-0.67
2018-12-01T11:00:19.718Z,-0.16
2018-12-01T11:01:19.716Z,-0.07
2018-12-01T11:02:19.703Z,-0.37
2018-12-01T11:03:19.687Z,-0.65
2018-12-01T11:04:19.718Z,-0.91
2018-12-01T11:05:19.664Z,-1.12
2018-12-01T11:06:19.652Z,-1.09
2018-12-01T11:07:19.648Z,-1.23
2018-12-01T11:08:19.636Z,-1.19
2018-12-01T11:09:19.627Z,-1.37
2018-12-01T11:10:19.651Z,-1.37
2018-12-01T11:11:19.598Z,-1.31
2018-12-01T11:12:19.594Z,-1.54
2018-12-01T11:13:19.581Z,-1.92
2018-12-01T11:14:19.573Z,-2.06
2018-12-01T11:15:19.562Z,-2.21
2018-12-01T11:16:19.583Z,-2.34
2018-12-01T11:17:19.539Z,-2.40
2018-12-01T11:18:19.545Z,-2.49
2018-12-01T11:19:19.522Z,-2.61
2018-12-01T11:20:19.510Z,-2.74
2018-12-01T11:21:19.493Z,-2.84
2018-12-01T11:22:19.830Z,-2.89
2018-12-01T11:23:29.806Z,-2.89
2018-12-01T11:24:19.466Z,-2.84
2018-12-01T11:25:19.454Z,-2.86
2018-12-01T11:26:19.438Z,-2.89
2018-12-01T11:27:19.431Z,-2.99
2018-12-01T11:28:19.460Z,-3.02
2018-12-01T11:29:19.410Z,-2.92
2018-12-01T11:30:19.397Z,-3.02
2018-12-01T11:31:19.409Z,-3.03
2018-12-01T11:32:19.373Z,-3.05
2018-12-01T11:33:19.366Z,-3.05
2018-12-01T11:34:19.376Z,-3.06
2018-12-01T11:35:19.352Z,-3.09
2018-12-01T11:36:19.341Z,-3.09
2018-12-01T11:37:19.322Z,-3.09
2018-12-01T11:38:19.317Z,-3.10
2018-12-01T11:39:19.314Z,-3.21
2018-12-01T11:40:19.334Z,-3.18
2018-12-01T11:41:19.286Z,-3.18
2018-12-01T11:42:19.274Z,-3.21
2018-12-01T11:43:19.261Z,-3.09
2018-12-01T11:44:19.247Z,-3.09
2018-12-01T11:45:19.246Z,-3.15
2018-12-01T11:46:19.834Z,-3.15
2018-12-01T11:47:19.217Z,-3.18
2018-12-01T11:48:19.223Z,-3.23
2018-12-01T11:49:19.199Z,-3.15
2018-12-01T11:50:19.193Z,-3.24
2018-12-01T11:51:19.186Z,-3.20
2018-12-01T11:52:19.228Z,-3.24
2018-12-01T11:53:19.157Z,-3.27
2018-12-01T11:54:29.261Z,-3.24
2018-12-01T11:55:19.133Z,-3.28
2018-12-01T11:56:19.127Z,-3.35
2018-12-01T11:57:19.111Z,-3.36
2018-12-01T11:58:19.141Z,-3.39
2018-12-01T11:59:19.103Z,-3.53
2018-12-01T12:00:19.080Z,-3.56
2018-12-01T12:01:19.109Z,-3.53
2018-12-01T12:02:19.068Z,-3.54
2018-12-01T12:03:19.084Z,-3.57
2018-12-01T12:04:19.335Z,-3.54
2018-12-01T12:05:19.030Z,-3.60
2018-12-01T12:06:19.023Z,-3.56
2018-12-01T12:07:19.009Z,-3.60
2018-12-01T12:08:19.033Z,-3.59
2018-12-01T12:09:18.985Z,-3.60
2018-12-01T12:10:19.014Z,-3.63
2018-12-01T12:11:18.965Z,-3.57
2018-12-01T12:12:19.013Z,-3.62
2018-12-01T12:13:18.947Z,-3.75
2018-12-01T12:14:18.937Z,-3.76
2018-12-01T12:15:18.922Z,-3.79
2018-12-01T12:16:18.950Z,-3.91
2018-12-01T12:17:18.900Z,-3.85
2018-12-01T12:18:18.892Z,-3.81
2018-12-01T12:19:18.885Z,-3.85
2018-12-01T12:20:18.873Z,-3.88
2018-12-01T12:21:18.863Z,-3.93
2018-12-01T12:22:18.887Z,-4.00
2018-12-01T12:23:18.835Z,-3.94
2018-12-01T12:24:18.830Z,-3.93
2018-12-01T12:25:29.399Z,-4.01
2018-12-01T12:26:18.805Z,-4.00
2018-12-01T12:27:18.793Z,-4.10
2018-12-01T12:28:19.364Z,-4.07
2018-12-01T12:29:18.780Z,-4.11
2018-12-01T12:30:18.779Z,-4.18
2018-12-01T12:31:18.751Z,-4.11
2018-12-01T12:32:18.743Z,-4.17
2018-12-01T12:33:18.737Z,-4.17
2018-12-01T12:34:18.873Z,-4.10
2018-12-01T12:35:18.725Z,-4.15
2018-12-01T12:36:18.704Z,-4.11
2018-12-01T12:37:18.699Z,-4.14
2018-12-01T12:38:18.685Z,-4.11
2018-12-01T12:39:18.677Z,-4.17
2018-12-01T12:40:18.679Z,-4.20
2018-12-01T12:41:18.651Z,-4.21
2018-12-01T12:42:18.650Z,-4.20
2018-12-01T12:43:18.628Z,-4.14
2018-12-01T12:44:18.619Z,-4.25
2018-12-01T12:45:18.611Z,-4.18
2018-12-01T12:46:18.638Z,-4.29
2018-12-01T12:47:18.597Z,-4.18
2018-12-01T12:48:18.580Z,-4.28
2018-12-01T12:49:18.570Z,-4.18
2018-12-01T12:50:18.558Z,-4.20
2018-12-01T12:51:18.551Z,-4.15
2018-12-01T12:52:19.375Z,-4.29
2018-12-01T12:53:18.526Z,-4.29
2018-12-01T12:54:18.520Z,-4.32